Time;durP1;ratioP1;P1;durP2;ratioP2;P2;SDS_P1;SDS_P2;PMS_P1;PMS_P2;Temp;Humidity;BMP_temperature;BMP_pressure;BME280_temperature;BME280_humidity;BME280_pressure;Samples;Min_cycle;Max_cycle;Signal;HPM_P1;HPM_P2
2021/04/02 00:00:27;;;;;;;22.13;10.00;;;;;;;;;;1054082;28;20004;-45
2021/04/02 00:00:58;;;;;;;18.20;9.23;;;;;;;;;;1053687;28;20087;-46
2021/04/02 00:01:29;;;;;;;21.10;9.13;;;;;;;;;;1053494;28;20026;-45
2021/04/02 00:01:59;;;;;;;16.63;8.73;;;;;;;;;;1054204;28;20027;-44
2021/04/02 00:02:30;;;;;;;25.03;9.73;;;;;;;;;;1053898;28;20020;-44
2021/04/02 00:03:03;;;;;;;16.63;9.05;;;;;;;;;;1053629;28;20111;-44
2021/04/02 00:03:34;;;;;;;22.92;9.27;;;;;;;;;;1053337;28;20404;-44
2021/04/02 00:04:04;;;;;;;18.17;9.15;;;;;;;;;;1053766;28;20020;-44
2021/04/02 00:04:35;;;;;;;16.50;9.03;;;;;;;;;;1053851;28;20031;-43
2021/04/02 00:05:05;;;;;;;17.57;9.27;;;;;;;;;;1053770;28;20008;-43
2021/04/02 00:05:36;;;;;;;19.43;9.90;;;;;;;;;;1053259;28;20015;-45
2021/04/02 00:06:06;;;;;;;22.70;9.87;;;;;;;;;;1053502;28;20019;-44
2021/04/02 00:06:37;;;;;;;18.03;10.17;;;;;;;;;;1053622;28;20016;-46
2021/04/02 00:07:07;;;;;;;22.33;9.00;;;;;;;;;;1053406;28;20012;-44
2021/04/02 00:07:37;;;;;;;18.40;9.30;;;;;;;;;;1049460;28;20020;-44
2021/04/02 00:08:08;;;;;;;22.03;10.40;;;;;;;;;;1053615;28;20020;-44
2021/04/02 00:08:38;;;;;;;18.60;9.70;;;;;;;;;;1053570;28;20066;-45
2021/04/02 00:09:09;;;;;;;22.83;10.47;;;;;;;;;;1053477;28;20016;-44
2021/04/02 00:09:39;;;;;;;21.27;10.77;;;;;;;;;;1053883;28;20415;-43
2021/04/02 00:10:14;;;;;;;21.00;10.67;;;;;;;;;;1049313;28;20097;-43
2021/04/02 00:10:47;;;;;;;18.52;9.63;;;;;;;;;;1049360;28;20027;-44
2021/04/02 00:11:17;;;;;;;22.77;11.52;;;;;;;;;;1050265;28;20359;-43
2021/04/02 00:11:47;;;;;;;21.13;10.60;;;;;;;;;;1053248;28;20027;-44
2021/04/02 00:12:18;;;;;;;23.33;10.83;;;;;;;;;;1053831;28;20098;-44
2021/04/02 00:12:48;;;;;;;24.27;11.07;;;;;;;;;;1053868;28;20035;-43
2021/04/02 00:13:19;;;;;;;24.17;11.10;;;;;;;;;;1053633;28;20085;-44
2021/04/02 00:13:49;;;;;;;26.33;10.97;;;;;;;;;;1053697;28;20357;-43
2021/04/02 00:14:20;;;;;;;23.57;11.23;;;;;;;;;;1053939;28;20016;-44
2021/04/02 00:14:50;;;;;;;19.33;11.50;;;;;;;;;;1053800;28;20012;-43
2021/04/02 00:15:20;;;;;;;23.70;11.47;;;;;;;;;;1053388;28;20008;-43
2021/04/02 00:15:51;;;;;;;28.70;11.70;;;;;;;;;;1053290;28;20020;-44
2021/04/02 00:16:21;;;;;;;24.27;12.10;;;;;;;;;;1053277;28;20114;-44
2021/04/02 00:16:51;;;;;;;24.27;11.80;;;;;;;;;;1053719;28;20173;-44
2021/04/02 00:17:22;;;;;;;20.67;11.00;;;;;;;;;;1053371;28;20020;-44
2021/04/02 00:17:52;;;;;;;18.60;11.07;;;;;;;;;;1053657;28;20099;-44
2021/04/02 00:18:23;;;;;;;23.50;11.27;;;;;;;;;;1053422;28;20098;-44
2021/04/02 00:18:53;;;;;;;23.57;11.77;;;;;;;;;;1053889;28;20444;-43
2021/04/02 00:19:23;;;;;;;22.33;11.33;;;;;;;;;;1053607;28;20048;-43
2021/04/02 00:19:56;;;;;;;21.93;11.67;;;;;;;;;;1053850;28;20012;-43
2021/04/02 00:20:26;;;;;;;24.67;12.32;;;;;;;;;;1053519;28;20159;-43
2021/04/02 00:20:56;;;;;;;25.10;12.30;;;;;;;;;;1053442;28;20133;-43
2021/04/02 00:21:27;;;;;;;26.10;11.77;;;;;;;;;;1053275;28;20048;-45
2021/04/02 00:21:57;;;;;;;31.07;12.20;;;;;;;;;;1053379;28;20039;-44
2021/04/02 00:22:27;;;;;;;28.57;12.43;;;;;;;;;;1052906;28;20212;-46
2021/04/02 00:22:57;;;;;;;25.00;12.60;;;;;;;;;;1053165;28;20504;-44
2021/04/02 00:23:28;;;;;;;22.10;11.73;;;;;;;;;;1053239;28;20051;-43
2021/04/02 00:23:58;;;;;;;25.10;12.20;;;;;;;;;;1053310;28;20016;-45
2021/04/02 00:24:28;;;;;;;20.37;11.63;;;;;;;;;;1053693;28;20004;-43
2021/04/02 00:24:59;;;;;;;22.07;12.07;;;;;;;;;;1053802;28;20016;-43
2021/04/02 00:25:29;;;;;;;27.80;13.23;;;;;;;;;;1053047;28;20445;-44
2021/04/02 00:25:59;;;;;;;27.13;12.17;;;;;;;;;;1053667;28;20051;-43
2021/04/02 00:26:30;;;;;;;26.37;13.17;;;;;;;;;;1052946;28;20035;-43
2021/04/02 00:27:00;;;;;;;24.93;13.03;;;;;;;;;;1049175;28;20009;-43
2021/04/02 00:27:30;;;;;;;21.07;12.33;;;;;;;;;;1049200;28;20012;-43
2021/04/02 00:28:01;;;;;;;21.43;12.30;;;;;;;;;;1049197;28;20008;-43
2021/04/02 00:28:32;;;;;;;24.70;12.45;;;;;;;;;;1049445;28;20005;-43
2021/04/02 00:29:02;;;;;;;30.50;13.03;;;;;;;;;;1053326;28;20012;-44
2021/04/02 00:29:32;;;;;;;27.73;13.63;;;;;;;;;;1048898;28;20118;-44
2021/04/02 00:30:13;;;;;;;27.83;13.63;;;;;;;;;;1049139;28;20008;-43
2021/04/02 00:30:47;;;;;;;27.00;13.70;;;;;;;;;;1053315;28;20039;-45
2021/04/02 00:31:17;;;;;;;32.50;14.13;;;;;;;;;;1053443;28;20017;-43
2021/04/02 00:31:48;;;;;;;29.57;13.90;;;;;;;;;;1053318;28;20107;-43
2021/04/02 00:32:18;;;;;;;30.20;14.33;;;;;;;;;;1053048;28;20525;-43
2021/04/02 00:32:49;;;;;;;31.53;14.63;;;;;;;;;;1053302;28;20015;-43
